Terminal Aerodrome Forecast
Issued by NWS

Home | Current Version | Previous Version | Graphics & Text | Print | Product List | Glossary Off
Versions: 1 2 3 4 5 6 7 8 9 10 11 12 13 14 15 16 17

000
FTUS43 KICT 290555 AAA
TAFSLN
TAF AMD
KSLN 290555Z 2906/3006 01011KT P6SM VCTS BKN080CB
      TEMPO 2906/2908 -TSRA BKN070CB
     FM291000 02011KT P6SM VCSH BKN080
     FM291800 07013KT P6SM VCSH BKN080=

USA.gov is the U.S. government's official web portal to all federal, state and local government web resources and services.